Time;durP1;ratioP1;P1;durP2;ratioP2;P2;SDS_P1;SDS_P2;PMS_P1;PMS_P2;Temp;Humidity;BMP_temperature;BMP_pressure;BME280_temperature;BME280_humidity;BME280_pressure;Samples;Min_cycle;Max_cycle;Signal;HPM_P1;HPM_P2
2022/10/04 00:00:09;;;;;;;;;;;12.30;99.90;;;;;;5035052;28;20133;-62
2022/10/04 00:02:35;;;;;;;15.85;11.40;;;12.30;99.90;;;;;;5034172;28;19917;-63
2022/10/04 00:05:07;;;;;;;17.48;12.48;;;12.20;99.90;;;;;;5034349;28;20025;-62
2022/10/04 00:07:56;;;;;;;11.75;9.50;;;12.30;99.90;;;;;;5034298;28;20614;-63
2022/10/04 00:10:23;;;;;;;12.45;10.13;;;12.30;99.90;;;;;;5034327;28;20017;-63
2022/10/04 00:12:51;;;;;;;16.50;11.30;;;12.30;99.90;;;;;;5034332;28;20383;-61
2022/10/04 00:15:36;;;;;;;14.85;11.10;;;12.20;99.90;;;;;;5034359;28;20036;-64
2022/10/04 00:18:17;;;;;;;12.88;10.52;;;12.20;99.90;;;;;;5034021;28;20489;-64
2022/10/04 00:20:54;;;;;;;14.88;11.23;;;12.20;99.90;;;;;;5034454;28;20025;-63
2022/10/04 00:23:22;;;;;;;15.00;11.68;;;12.20;99.90;;;;;;5034160;28;20029;-64
2022/10/04 00:25:59;;;;;;;12.27;9.93;;;12.10;99.90;;;;;;5034003;28;20100;-64
2022/10/04 00:28:25;;;;;;;13.25;10.18;;;12.10;99.90;;;;;;5034056;28;20029;-62
2022/10/04 00:31:14;;;;;;;10.43;9.20;;;12.00;99.90;;;;;;5033866;28;20021;-63
2022/10/04 00:33:43;;;;;;;11.70;9.60;;;12.00;99.90;;;;;;5033750;28;20037;-61
2022/10/04 00:36:23;;;;;;;16.15;12.40;;;12.00;99.90;;;;;;5033769;28;20076;-60
2022/10/04 00:39:07;;;;;;;18.42;14.15;;;11.90;99.90;;;;;;5033912;28;20022;-64
2022/10/04 00:41:34;;;;;;;17.02;11.75;;;11.80;99.90;;;;;;5033724;28;20072;-61
2022/10/04 00:44:01;;;;;;;14.07;10.57;;;11.70;99.90;;;;;;5033792;28;20030;-64
2022/10/04 00:46:29;;;;;;;12.52;9.88;;;11.70;99.90;;;;;;5033741;28;20025;-63
2022/10/04 00:48:59;;;;;;;12.85;10.20;;;11.80;99.90;;;;;;5033629;28;20021;-64
2022/10/04 00:51:40;;;;;;;17.77;11.00;;;11.80;99.90;;;;;;5033860;28;20075;-64
2022/10/04 00:54:12;;;;;;;14.60;11.13;;;11.80;99.90;;;;;;5033476;28;20410;-63
2022/10/04 00:56:50;;;;;;;19.85;14.10;;;11.80;99.90;;;;;;5033488;28;20040;-63
2022/10/04 00:59:39;;;;;;;26.05;18.40;;;11.80;99.90;;;;;;5033501;28;20100;-63
2022/10/04 01:02:32;;;;;;;23.15;16.20;;;11.70;99.90;;;;;;5033178;28;20046;-62
2022/10/04 01:05:09;;;;;;;17.55;14.13;;;11.60;99.90;;;;;;5033635;28;20420;-63
2022/10/04 01:07:43;;;;;;;20.55;13.98;;;11.60;99.90;;;;;;5032963;28;20467;-62
2022/10/04 01:10:30;;;;;;;17.92;13.82;;;11.60;99.90;;;;;;5033576;28;20056;-61
2022/10/04 01:13:18;;;;;;;18.88;14.55;;;11.70;99.90;;;;;;5033582;28;20025;-62
2022/10/04 01:15:52;;;;;;;12.93;10.50;;;11.70;99.90;;;;;;5033058;28;20395;-62
2022/10/04 01:18:17;;;;;;;13.63;10.40;;;11.60;99.90;;;;;;5033227;28;20031;-61
2022/10/04 01:20:49;;;;;;;15.07;10.70;;;11.60;99.90;;;;;;5033286;28;20029;-61
2022/10/04 01:23:37;;;;;;;13.70;10.07;;;11.60;99.90;;;;;;5033212;28;20025;-63
2022/10/04 01:26:25;;;;;;;10.57;8.60;;;11.60;99.90;;;;;;5033509;28;20108;-63
2022/10/04 01:28:52;;;;;;;10.93;8.20;;;11.60;99.90;;;;;;5032976;28;20033;-64
2022/10/04 01:31:18;;;;;;;11.27;8.50;;;11.60;99.90;;;;;;5032976;28;20029;-61
2022/10/04 01:33:44;;;;;;;9.43;7.85;;;11.60;99.90;;;;;;5033179;28;20021;-61
2022/10/04 01:36:10;;;;;;;9.68;7.50;;;11.60;99.90;;;;;;5032989;28;20397;-63
2022/10/04 01:38:36;;;;;;;9.98;7.65;;;11.50;99.90;;;;;;5033041;28;20040;-62
2022/10/04 01:41:04;;;;;;;10.68;8.32;;;11.50;99.90;;;;;;5033133;28;20018;-61
2022/10/04 01:43:36;;;;;;;9.80;7.65;;;11.50;99.90;;;;;;5032952;28;20018;-62
2022/10/04 01:46:09;;;;;;;9.57;6.97;;;11.50;99.90;;;;;;5033131;28;20037;-63
2022/10/04 01:48:37;;;;;;;9.48;7.25;;;11.40;99.90;;;;;;5032998;28;20108;-62
2022/10/04 01:51:29;;;;;;;11.75;7.97;;;11.40;99.90;;;;;;5032942;28;20424;-62
2022/10/04 01:54:02;;;;;;;7.90;6.60;;;11.50;99.90;;;;;;5024248;28;20026;-61
2022/10/04 01:56:53;;;;;;;10.32;7.60;;;11.40;99.90;;;;;;5032969;28;20036;-61
2022/10/04 01:59:24;;;;;;;7.45;6.28;;;11.40;99.90;;;;;;5032171;28;20125;-61
2022/10/04 02:01:59;;;;;;;8.73;6.72;;;11.30;99.90;;;;;;5032817;28;20519;-61
2022/10/04 02:04:37;;;;;;;8.55;6.80;;;11.40;99.90;;;;;;5032912;28;20030;-61
2022/10/04 02:07:09;;;;;;;8.73;6.85;;;11.30;99.90;;;;;;5032829;28;20028;-63
2022/10/04 02:09:39;;;;;;;9.65;7.07;;;11.30;99.90;;;;;;5033102;28;20049;-61
2022/10/04 02:12:05;;;;;;;8.82;6.72;;;11.30;99.90;;;;;;5032928;28;20036;-61
2022/10/04 02:14:33;;;;;;;8.95;6.25;;;11.30;99.90;;;;;;5032749;28;20029;-60
2022/10/04 02:17:02;;;;;;;6.35;5.13;;;11.30;99.90;;;;;;5032776;28;20021;-63
2022/10/04 02:19:34;;;;;;;9.55;6.95;;;11.30;99.90;;;;;;5032883;28;20030;-62
2022/10/04 02:22:04;;;;;;;7.65;5.80;;;11.20;99.90;;;;;;5036381;28;20032;-61
2022/10/04 02:24:34;;;;;;;6.78;5.60;;;11.20;99.90;;;;;;5036314;28;20029;-61
2022/10/04 02:27:00;;;;;;;6.80;5.22;;;11.20;99.90;;;;;;5036622;28;20511;-63
2022/10/04 02:29:26;;;;;;;6.97;5.78;;;11.20;99.90;;;;;;5036261;28;20049;-61
2022/10/04 02:34:37;;;;;;;6.70;5.70;;;11.20;99.90;;;;;;5036255;28;20079;-63
2022/10/04 02:37:05;;;;;;;5.70;4.95;;;11.20;99.90;;;;;;5036370;28;20379;-64
2022/10/04 02:39:42;;;;;;;6.55;5.10;;;11.20;99.90;;;;;;5036033;28;20036;-64
2022/10/04 02:42:13;;;;;;;5.45;4.55;;;11.10;99.90;;;;;;5036096;28;20026;-63
2022/10/04 02:45:06;;;;;;;8.52;5.00;;;11.20;99.90;;;;;;5035975;28;20388;-63
2022/10/04 02:47:55;;;;;;;6.10;4.97;;;11.20;99.90;;;;;;5035930;28;20051;-62
2022/10/04 02:50:35;;;;;;;5.63;4.80;;;11.30;99.90;;;;;;5035811;28;20064;-64
2022/10/04 02:53:22;;;;;;;5.97;4.85;;;11.30;99.90;;;;;;5035778;28;20056;-61
2022/10/04 02:55:48;;;;;;;5.40;4.25;;;11.30;99.90;;;;;;5035669;28;20471;-64
2022/10/04 02:58:19;;;;;;;5.80;4.20;;;11.30;99.90;;;;;;5035465;28;20030;-62
2022/10/04 03:00:51;;;;;;;4.43;4.03;;;11.30;99.90;;;;;;5035619;28;20037;-62
2022/10/04 03:03:29;;;;;;;4.50;3.70;;;11.40;99.90;;;;;;5035747;28;20029;-61
2022/10/04 03:06:01;;;;;;;4.80;4.10;;;11.30;99.90;;;;;;5035652;28;20033;-63
2022/10/04 03:08:29;;;;;;;9.05;4.90;;;11.40;99.90;;;;;;5035635;28;20018;-62
2022/10/04 03:10:58;;;;;;;6.00;4.13;;;11.40;99.90;;;;;;5035472;28;20018;-61
2022/10/04 03:13:25;;;;;;;4.25;3.47;;;11.40;99.90;;;;;;5035230;28;20029;-61
2022/10/04 03:15:51;;;;;;;4.70;3.63;;;11.30;99.90;;;;;;5035363;28;20037;-62
2022/10/04 03:18:18;;;;;;;4.35;3.65;;;11.30;99.90;;;;;;5035344;28;20025;-64
2022/10/04 03:20:45;;;;;;;4.35;3.80;;;11.30;99.90;;;;;;5035294;28;20112;-62
2022/10/04 03:23:14;;;;;;;5.15;3.75;;;11.30;99.90;;;;;;5035266;28;20072;-62
2022/10/04 03:25:49;;;;;;;4.28;3.67;;;11.30;99.90;;;;;;5035008;28;20033;-60
2022/10/04 03:28:15;;;;;;;5.88;3.88;;;11.20;99.90;;;;;;5035300;28;20022;-64
2022/10/04 03:30:45;;;;;;;4.32;3.58;;;11.20;99.90;;;;;;5034769;28;20025;-62
2022/10/04 03:33:18;;;;;;;4.93;3.47;;;11.10;99.90;;;;;;5035046;28;20022;-63
2022/10/04 03:35:46;;;;;;;5.30;3.53;;;11.10;99.90;;;;;;5035087;28;20048;-61
2022/10/04 03:38:13;;;;;;;4.60;3.53;;;11.10;99.90;;;;;;5034969;28;20506;-62
2022/10/04 03:40:46;;;;;;;4.00;2.97;;;11.00;99.90;;;;;;5034876;28;20029;-63
2022/10/04 03:43:13;;;;;;;4.25;3.35;;;10.90;99.90;;;;;;5035200;28;20030;-61
2022/10/04 03:45:40;;;;;;;5.07;3.42;;;10.90;99.90;;;;;;5034870;28;20026;-62
2022/10/04 03:48:10;;;;;;;6.15;4.32;;;10.90;99.90;;;;;;5034843;28;20049;-64
2022/10/04 03:50:45;;;;;;;3.67;3.15;;;10.90;99.90;;;;;;5034781;28;20029;-63
2022/10/04 03:53:23;;;;;;;4.25;3.13;;;10.80;99.90;;;;;;5034611;28;20503;-60
2022/10/04 03:55:48;;;;;;;5.40;3.60;;;10.80;99.90;;;;;;5034515;28;20383;-61
2022/10/04 03:58:17;;;;;;;3.70;2.88;;;10.80;99.90;;;;;;5034471;28;20034;-61
2022/10/04 04:00:57;;;;;;;4.30;3.33;;;10.80;99.90;;;;;;5034360;28;20072;-63
2022/10/04 04:03:27;;;;;;;5.20;3.50;;;10.80;99.90;;;;;;5034514;28;20049;-61
2022/10/04 04:05:57;;;;;;;7.53;4.47;;;10.70;99.90;;;;;;5034464;28;20108;-61
2022/10/04 04:08:32;;;;;;;6.70;5.13;;;10.70;99.90;;;;;;5034390;28;20075;-63
2022/10/04 04:11:01;;;;;;;8.35;5.25;;;10.60;99.90;;;;;;5034278;28;20407;-61
2022/10/04 04:13:49;;;;;;;4.68;3.50;;;10.40;99.90;;;;;;5034542;28;20155;-61
2022/10/04 04:16:18;;;;;;;5.90;3.88;;;10.40;99.90;;;;;;5034374;28;20041;-63
2022/10/04 04:18:45;;;;;;;4.53;3.05;;;10.50;99.90;;;;;;5034310;28;20114;-61
2022/10/04 04:21:17;;;;;;;6.25;3.20;;;10.50;99.90;;;;;;5034165;28;20518;-63
2022/10/04 04:24:08;;;;;;;4.50;3.53;;;10.50;99.90;;;;;;5034029;28;20033;-61
2022/10/04 04:26:41;;;;;;;5.93;4.20;;;10.60;99.90;;;;;;5034026;28;20030;-60
2022/10/04 04:29:10;;;;;;;4.15;3.45;;;10.60;99.90;;;;;;5033950;28;20464;-62
2022/10/04 04:31:50;;;;;;;3.85;3.17;;;10.40;99.90;;;;;;5033975;28;20364;-61
2022/10/04 04:34:31;;;;;;;6.28;4.40;;;10.40;99.90;;;;;;5034076;28;20033;-60
2022/10/04 04:37:03;;;;;;;6.10;4.70;;;10.40;99.90;;;;;;5033930;28;20057;-62
2022/10/04 04:39:36;;;;;;;7.30;5.65;;;10.40;99.90;;;;;;5033626;28;20532;-61
2022/10/04 04:42:16;;;;;;;8.43;6.50;;;10.50;99.90;;;;;;5033362;28;20104;-63
2022/10/04 04:44:52;;;;;;;8.98;6.13;;;10.40;99.90;;;;;;5034006;28;20265;-62
2022/10/04 04:47:43;;;;;;;9.48;6.20;;;10.50;99.90;;;;;;5033831;28;20026;-61
2022/10/04 04:50:15;;;;;;;7.50;4.88;;;10.40;99.90;;;;;;5033974;28;20029;-64
2022/10/04 04:52:49;;;;;;;6.85;5.18;;;10.40;99.90;;;;;;5033692;28;20064;-62
2022/10/04 04:55:23;;;;;;;7.30;5.20;;;10.30;99.90;;;;;;5033271;28;20026;-63
2022/10/04 04:57:53;;;;;;;10.35;6.10;;;10.40;99.90;;;;;;5033796;28;20076;-63
2022/10/04 05:00:25;;;;;;;6.82;5.18;;;10.40;99.90;;;;;;5033151;28;20120;-62
2022/10/04 05:02:58;;;;;;;8.93;6.03;;;10.40;99.90;;;;;;5033408;28;20502;-63
2022/10/04 05:05:29;;;;;;;6.10;5.10;;;10.40;99.90;;;;;;5033651;28;20356;-62
2022/10/04 05:08:32;;;;;;;5.55;4.80;;;10.40;99.90;;;;;;5033283;28;20372;-61
2022/10/04 05:11:07;;;;;;;6.97;5.07;;;10.40;99.90;;;;;;5033297;28;20037;-62
2022/10/04 05:13:48;;;;;;;8.95;6.70;;;10.40;99.90;;;;;;5033279;28;20252;-61
2022/10/04 05:16:34;;;;;;;5.30;4.80;;;10.40;99.90;;;;;;5033028;28;20057;-62
2022/10/04 05:19:04;;;;;;;5.93;5.00;;;10.40;99.90;;;;;;5033351;28;20096;-60
2022/10/04 05:21:32;;;;;;;5.85;4.78;;;10.50;99.90;;;;;;5033241;28;20515;-64
2022/10/04 05:24:17;;;;;;;5.45;4.53;;;10.50;99.90;;;;;;5032990;28;20434;-61
2022/10/04 05:26:43;;;;;;;5.45;4.75;;;10.50;99.90;;;;;;5031440;28;20222;-60
2022/10/04 05:29:14;;;;;;;5.35;4.68;;;10.50;99.90;;;;;;5031827;28;20497;-64
2022/10/04 05:31:58;;;;;;;4.88;4.25;;;10.50;99.90;;;;;;5032641;28;20026;-63
2022/10/04 05:34:29;;;;;;;;;;;10.50;99.90;;;;;;5033088;28;20021;-63
2022/10/04 05:37:01;;;;;;;4.20;3.80;;;10.50;99.90;;;;;;5032316;28;19905;-63
2022/10/04 05:39:39;;;;;;;6.65;4.78;;;10.50;99.90;;;;;;5032533;28;20096;-60
2022/10/04 05:42:11;;;;;;;4.63;3.65;;;10.50;99.90;;;;;;5033058;28;20499;-63
2022/10/04 05:44:53;;;;;;;4.10;3.80;;;10.60;99.90;;;;;;5032966;28;20026;-64
2022/10/04 05:47:23;;;;;;;5.82;4.68;;;10.60;99.90;;;;;;5033021;28;20021;-61
2022/10/04 05:49:59;;;;;;;5.72;4.13;;;10.60;99.90;;;;;;5033026;28;20029;-61
2022/10/04 05:52:35;;;;;;;7.18;5.53;;;10.70;99.90;;;;;;5013022;28;20022;-61
2022/10/04 05:55:27;;;;;;;10.80;8.98;;;10.70;99.90;;;;;;5015695;28;20045;-62
2022/10/04 05:58:31;;;;;;;19.77;13.52;;;10.70;99.90;;;;;;5013191;28;20030;-62
2022/10/04 06:01:05;;;;;;;24.25;16.48;;;10.70;99.90;;;;;;5016705;28;20050;-61
2022/10/04 06:03:48;;;;;;;43.22;26.33;;;10.80;99.90;;;;;;5016779;28;20033;-61
2022/10/04 06:06:41;;;;;;;26.25;18.42;;;10.90;99.90;;;;;;5016566;28;20040;-61
2022/10/04 06:09:22;;;;;;;26.35;19.13;;;10.90;99.90;;;;;;5017050;28;20030;-61
2022/10/04 06:11:51;;;;;;;35.58;22.38;;;10.90;99.90;;;;;;5016792;28;20029;-61
2022/10/04 06:14:49;;;;;;;28.23;19.42;;;10.90;99.90;;;;;;5016756;28;20026;-63
2022/10/04 06:17:21;;;;;;;46.95;30.25;;;11.00;99.90;;;;;;5015821;28;20090;-63
2022/10/04 06:20:10;;;;;;;61.15;35.35;;;11.10;99.90;;;;;;5015540;28;20061;-61
2022/10/04 06:22:44;;;;;;;51.22;36.97;;;13.50;99.90;;;;;;5023140;28;20488;-62
2022/10/04 06:25:35;;;;;;;62.22;40.55;;;16.90;99.90;;;;;;5036447;28;20418;-64
2022/10/04 06:28:26;;;;;;;51.67;37.05;;;19.30;77.10;;;;;;5036481;28;20101;-63
2022/10/04 06:31:17;;;;;;;41.97;30.77;;;21.30;64.40;;;;;;5036126;28;20581;-65
2022/10/04 06:33:42;;;;;;;35.88;26.23;;;22.90;59.60;;;;;;5035728;28;20025;-60
2022/10/04 06:36:24;;;;;;;29.65;22.42;;;21.80;55.70;;;;;;5035208;28;20036;-63
2022/10/04 06:39:19;;;;;;;25.83;20.27;;;21.50;58.50;;;;;;5032835;28;20087;-63
2022/10/04 06:42:12;;;;;;;25.92;19.52;;;22.20;55.90;;;;;;5034741;28;20030;-62
2022/10/04 06:44:59;;;;;;;33.58;25.52;;;23.40;54.40;;;;;;5033155;28;20112;-64
2022/10/04 06:47:43;;;;;;;24.50;19.98;;;23.30;53.50;;;;;;5032238;28;20025;-62
2022/10/04 06:50:38;;;;;;;21.20;17.45;;;23.70;52.70;;;;;;5032131;28;20360;-63
2022/10/04 06:53:42;;;;;;;17.67;15.55;;;23.30;53.80;;;;;;5012153;28;20506;-61
2022/10/04 06:56:26;;;;;;;17.95;14.40;;;25.10;52.10;;;;;;5028655;28;20049;-64
2022/10/04 06:59:17;;;;;;;14.90;12.98;;;26.80;49.50;;;;;;5013130;28;20036;-63
2022/10/04 07:02:11;;;;;;;12.98;11.57;;;27.10;47.10;;;;;;5019550;28;20126;-63
2022/10/04 07:05:01;;;;;;;13.10;11.73;;;26.80;47.50;;;;;;5032543;28;20068;-62
2022/10/04 07:07:36;;;;;;;10.55;9.50;;;27.60;48.00;;;;;;5031115;28;20029;-63
2022/10/04 07:10:17;;;;;;;7.93;7.15;;;28.90;45.50;;;;;;5033120;28;20025;-64
2022/10/04 07:12:49;;;;;;;6.25;5.65;;;28.00;44.70;;;;;;5033928;28;20049;-62
2022/10/04 07:15:30;;;;;;;5.03;4.55;;;26.00;45.10;;;;;;5033503;28;20087;-62
2022/10/04 07:18:02;;;;;;;6.45;4.13;;;24.60;47.00;;;;;;5031299;28;20427;-62
2022/10/04 07:20:33;;;;;;;4.85;3.80;;;23.60;47.80;;;;;;5030865;28;20030;-62
2022/10/04 07:23:06;;;;;;;4.05;3.65;;;24.00;47.70;;;;;;5031295;28;20009;-61
2022/10/04 07:25:45;;;;;;;4.35;3.95;;;22.80;49.70;;;;;;5031093;28;20022;-64
2022/10/04 07:31:12;;;;;;;4.88;3.38;;;21.40;52.30;;;;;;5013334;28;20037;-64
2022/10/04 07:33:48;;;;;;;4.18;3.70;;;20.80;54.30;;;;;;5014424;28;20026;-62
2022/10/04 07:36:23;;;;;;;4.75;3.50;;;20.30;56.00;;;;;;5014997;28;20037;-64
2022/10/04 07:39:00;;;;;;;3.05;2.83;;;20.30;56.30;;;;;;5014540;28;20084;-61
2022/10/04 07:41:45;;;;;;;5.28;3.58;;;20.30;55.10;;;;;;5013903;28;20057;-62
2022/10/04 07:44:19;;;;;;;6.93;3.38;;;20.00;55.30;;;;;;5015226;28;20036;-61
2022/10/04 07:46:57;;;;;;;6.07;3.70;;;19.50;56.80;;;;;;5013930;28;20121;-60
2022/10/04 07:49:24;;;;;;;6.57;3.78;;;20.30;57.90;;;;;;5014193;28;20022;-61
2022/10/04 07:51:56;;;;;;;5.65;3.40;;;20.30;56.30;;;;;;5015340;28;20037;-63
2022/10/04 07:54:42;;;;;;;4.57;3.40;;;20.30;56.90;;;;;;5002473;28;20442;-63
2022/10/04 07:57:32;;;;;;;4.68;3.50;;;20.90;55.70;;;;;;5033791;28;20036;-63
2022/10/04 08:00:10;;;;;;;3.50;3.17;;;20.60;55.20;;;;;;5031021;28;20037;-62
2022/10/04 08:03:07;;;;;;;3.03;2.72;;;19.80;56.60;;;;;;5032645;28;20133;-64
2022/10/04 08:05:41;;;;;;;4.85;3.58;;;19.40;60.10;;;;;;5033094;28;20061;-61
2022/10/04 08:08:22;;;;;;;3.92;3.15;;;19.20;58.50;;;;;;5033687;28;20039;-63
2022/10/04 08:11:00;;;;;;;5.28;3.47;;;19.20;60.90;;;;;;5015303;28;20025;-63
2022/10/04 08:13:51;;;;;;;4.72;3.50;;;19.20;61.60;;;;;;5031917;28;20384;-65
2022/10/04 08:16:31;;;;;;;4.38;3.97;;;19.30;60.60;;;;;;5032528;28;20033;-62
2022/10/04 08:19:18;;;;;;;4.65;4.13;;;19.00;62.60;;;;;;5032093;28;20100;-61
2022/10/04 08:21:59;;;;;;;4.88;3.90;;;18.80;62.90;;;;;;5033029;28;20025;-65
2022/10/04 08:24:47;;;;;;;7.22;4.72;;;18.80;62.90;;;;;;5032992;28;20074;-64
2022/10/04 08:27:25;;;;;;;6.57;4.13;;;19.50;62.60;;;;;;5016783;28;20068;-64
2022/10/04 08:30:09;;;;;;;4.45;4.05;;;19.70;61.70;;;;;;5032328;28;20079;-61
2022/10/04 08:32:43;;;;;;;6.03;4.60;;;19.40;61.60;;;;;;5033705;28;20152;-61
2022/10/04 08:35:15;;;;;;;7.25;4.82;;;19.20;60.60;;;;;;5029425;28;20044;-62
2022/10/04 08:38:08;;;;;;;5.72;4.25;;;19.00;62.00;;;;;;5032815;28;20478;-61
2022/10/04 08:40:55;;;;;;;8.23;5.50;;;18.90;64.10;;;;;;5024432;28;20504;-63
2022/10/04 08:43:56;;;;;;;6.95;4.88;;;18.90;63.00;;;;;;5027631;28;20353;-61
2022/10/04 08:46:39;;;;;;;7.43;4.47;;;18.90;65.70;;;;;;5013772;28;20064;-63
2022/10/04 08:49:42;;;;;;;5.93;4.43;;;18.70;67.40;;;;;;5016008;28;20068;-63
2022/10/04 08:52:41;;;;;;;5.07;3.97;;;18.40;64.00;;;;;;5019236;28;20031;-62
2022/10/04 08:56:00;;;;;;;5.20;3.85;;;18.20;66.10;;;;;;4978343;28;20120;-61
2022/10/04 08:58:47;;;;;;;4.75;4.03;;;18.30;68.80;;;;;;4971557;28;20443;-63
2022/10/04 09:01:50;;;;;;;3.80;3.40;;;18.30;68.10;;;;;;5018122;28;20370;-62
2022/10/04 09:04:39;;;;;;;5.05;3.78;;;18.40;68.60;;;;;;5020215;28;20025;-62
2022/10/04 09:07:32;;;;;;;4.38;3.78;;;18.60;66.50;;;;;;5029081;28;20038;-62
2022/10/04 09:10:35;;;;;;;3.90;3.35;;;18.70;66.60;;;;;;5029350;28;20049;-62
2022/10/04 09:13:29;;;;;;;4.78;3.70;;;18.90;68.60;;;;;;5028755;28;20095;-62
2022/10/04 09:16:01;;;;;;;4.18;3.20;;;19.30;66.90;;;;;;5030347;28;20040;-61
2022/10/04 09:18:51;;;;;;;3.30;2.75;;;19.50;63.40;;;;;;5026091;28;20021;-62
2022/10/04 09:21:37;;;;;;;2.85;2.47;;;19.80;60.40;;;;;;5025164;28;20448;-62
2022/10/04 09:24:09;;;;;;;2.88;2.40;;;20.20;57.70;;;;;;5025465;28;20388;-61
2022/10/04 09:26:51;;;;;;;4.47;2.58;;;20.30;57.00;;;;;;5030919;28;20045;-61
2022/10/04 09:29:31;;;;;;;3.78;2.40;;;20.40;57.30;;;;;;5020230;28;20037;-62
2022/10/04 09:32:26;;;;;;;3.05;2.08;;;20.40;55.50;;;;;;5027539;28;20112;-61
2022/10/04 09:35:16;;;;;;;3.47;2.17;;;20.40;55.10;;;;;;5029423;28;20084;-61
2022/10/04 09:37:47;;;;;;;4.03;3.38;;;20.30;53.70;;;;;;5031101;28;20025;-62
2022/10/04 09:40:48;;;;;;;5.60;3.97;;;20.00;55.50;;;;;;5012253;28;20052;-62
2022/10/04 09:43:41;;;;;;;2.55;2.22;;;20.10;54.60;;;;;;5032382;28;20029;-63
2022/10/04 09:46:32;;;;;;;1.95;1.70;;;20.00;54.00;;;;;;5014200;28;20028;-63
2022/10/04 09:49:21;;;;;;;1.90;1.40;;;20.10;54.60;;;;;;5028024;28;20099;-62
2022/10/04 09:52:15;;;;;;;3.15;1.60;;;20.00;54.80;;;;;;5025730;28;20017;-61
2022/10/04 09:55:12;;;;;;;4.35;3.65;;;19.80;56.70;;;;;;5030927;28;20034;-61
2022/10/04 09:58:04;;;;;;;4.50;3.80;;;19.80;56.80;;;;;;5011477;28;20431;-61
2022/10/04 10:00:41;;;;;;;4.70;3.10;;;19.80;57.00;;;;;;5009348;28;20053;-62
2022/10/04 10:03:51;;;;;;;3.05;2.40;;;19.90;55.30;;;;;;5020217;28;20025;-63
2022/10/04 10:06:39;;;;;;;2.92;2.22;;;19.80;56.40;;;;;;5024542;28;20030;-61
2022/10/04 10:09:20;;;;;;;3.78;2.50;;;20.00;56.40;;;;;;5012742;28;20445;-62
2022/10/04 10:15:24;;;;;;;3.67;2.72;;;20.30;54.30;;;;;;5018221;28;20048;-61
2022/10/04 10:18:14;;;;;;;3.78;2.10;;;20.10;54.50;;;;;;5027144;28;20026;-62
2022/10/04 10:21:09;;;;;;;3.92;3.00;;;19.80;53.90;;;;;;5031072;28;20053;-62
2022/10/04 10:24:10;;;;;;;3.67;2.25;;;19.50;54.80;;;;;;5025857;28;20021;-63
2022/10/04 10:26:42;;;;;;;5.03;2.63;;;19.30;53.80;;;;;;5017148;28;20031;-64
2022/10/04 10:29:35;;;;;;;2.28;2.10;;;19.10;55.50;;;;;;5027929;28;20033;-63
2022/10/04 10:32:09;;;;;;;2.42;2.22;;;19.10;55.60;;;;;;5021290;28;20119;-65
2022/10/04 10:34:48;;;;;;;2.45;1.65;;;19.10;55.90;;;;;;5020112;28;20044;-63
2022/10/04 10:37:34;;;;;;;3.42;1.90;;;19.10;57.10;;;;;;5009637;28;20046;-61
2022/10/04 10:40:22;;;;;;;2.13;1.70;;;19.10;60.00;;;;;;5010171;28;20038;-61
2022/10/04 10:43:00;;;;;;;1.48;1.38;;;18.80;62.20;;;;;;5013527;28;20018;-64
2022/10/04 10:45:34;;;;;;;2.15;1.20;;;18.80;65.10;;;;;;5020518;28;20112;-62
2022/10/04 10:48:34;;;;;;;1.20;1.10;;;18.80;71.10;;;;;;5031698;28;20590;-65
2022/10/04 10:51:09;;;;;;;3.58;2.72;;;18.80;78.30;;;;;;4981595;28;20716;-65
2022/10/04 10:54:13;;;;;;;7.20;4.43;;;18.70;86.30;;;;;;5029136;28;20029;-63
2022/10/04 10:56:48;;;;;;;6.63;5.60;;;18.30;95.40;;;;;;5028492;28;20048;-62
2022/10/04 10:59:37;;;;;;;11.25;8.00;;;17.90;99.90;;;;;;5025199;28;20091;-64
2022/10/04 11:02:24;;;;;;;18.05;14.57;;;17.70;99.90;;;;;;5031700;28;20198;-63
2022/10/04 11:05:03;;;;;;;24.98;17.38;;;17.60;99.90;;;;;;5027317;28;20068;-63
2022/10/04 11:08:10;;;;;;;24.48;20.10;;;17.60;99.90;;;;;;5027273;28;20029;-65
2022/10/04 11:11:14;;;;;;;16.42;11.55;;;17.50;99.90;;;;;;4959680;28;20380;-62
2022/10/04 11:14:11;;;;;;;7.93;6.88;;;17.60;99.90;;;;;;5007854;28;20034;-65
2022/10/04 11:17:02;;;;;;;6.03;5.38;;;17.80;99.90;;;;;;5018138;28;20045;-61
2022/10/04 11:19:34;;;;;;;11.20;9.32;;;18.10;99.70;;;;;;5005593;28;20021;-62
2022/10/04 11:22:29;;;;;;;8.02;6.20;;;18.30;97.80;;;;;;5019005;28;20607;-61
2022/10/04 11:25:06;;;;;;;5.95;5.35;;;18.50;91.10;;;;;;5028174;28;20029;-62
2022/10/04 11:28:03;;;;;;;6.43;5.07;;;18.90;89.00;;;;;;5023706;28;20105;-62
2022/10/04 11:31:16;;;;;;;6.55;5.10;;;19.20;87.80;;;;;;5006868;28;20052;-63
2022/10/04 11:33:58;;;;;;;6.05;4.78;;;19.50;80.70;;;;;;4993267;28;20068;-63
2022/10/04 11:36:48;;;;;;;7.70;5.65;;;19.70;78.30;;;;;;5021795;28;20060;-63
2022/10/04 11:39:35;;;;;;;6.68;4.85;;;19.80;78.50;;;;;;5019644;28;20234;-62
2022/10/04 11:42:19;;;;;;;4.25;3.45;;;20.00;82.10;;;;;;5022537;28;20029;-62
2022/10/04 11:45:18;;;;;;;6.82;4.68;;;20.20;69.20;;;;;;5028170;28;20029;-65
2022/10/04 11:48:10;;;;;;;4.68;3.78;;;20.40;68.40;;;;;;5030045;28;20496;-63
2022/10/04 11:51:03;;;;;;;4.55;2.63;;;20.20;61.40;;;;;;5009368;28;20025;-64
2022/10/04 11:54:09;;;;;;;4.15;3.78;;;20.60;61.90;;;;;;5024622;28;20029;-65
2022/10/04 11:56:58;;;;;;;4.53;4.10;;;21.30;64.40;;;;;;4941201;28;20537;-62
2022/10/04 11:59:49;;;;;;;4.40;3.17;;;21.90;61.80;;;;;;5020864;28;20041;-64
2022/10/04 12:02:27;;;;;;;4.45;3.35;;;22.40;58.40;;;;;;5025953;28;20125;-63
2022/10/04 12:05:14;;;;;;;6.35;3.15;;;22.40;57.30;;;;;;5031393;28;20112;-62
2022/10/04 12:08:11;;;;;;;8.00;5.03;;;22.40;57.70;;;;;;5031189;28;20100;-64
2022/10/04 12:10:40;;;;;;;5.90;5.03;;;21.90;54.60;;;;;;5026155;28;20069;-62
2022/10/04 12:13:27;;;;;;;4.47;3.92;;;21.50;56.30;;;;;;5023007;28;20030;-64
2022/10/04 12:16:26;;;;;;;4.35;3.15;;;21.70;54.50;;;;;;5025454;28;20037;-60
2022/10/04 12:19:28;;;;;;;4.30;2.22;;;21.70;56.10;;;;;;5017244;28;20434;-61
2022/10/04 12:22:14;;;;;;;2.63;1.95;;;22.20;57.80;;;;;;5012999;28;20025;-62
2022/10/04 12:24:46;;;;;;;2.88;1.65;;;22.30;55.60;;;;;;4963028;28;20057;-62
2022/10/04 12:27:15;;;;;;;2.28;1.52;;;22.50;54.80;;;;;;5032428;28;20037;-62
2022/10/04 12:30:09;;;;;;;3.05;1.52;;;22.80;53.20;;;;;;5022395;28;20034;-63
2022/10/04 12:33:02;;;;;;;2.67;1.75;;;22.80;54.90;;;;;;4974810;28;20034;-62
2022/10/04 12:35:39;;;;;;;2.33;1.60;;;22.90;50.50;;;;;;5009859;28;20037;-63
2022/10/04 12:38:06;;;;;;;3.33;2.13;;;23.40;51.90;;;;;;5009132;28;20471;-61
2022/10/04 12:40:53;;;;;;;2.90;1.45;;;23.90;50.70;;;;;;5010040;28;20492;-62
2022/10/04 12:43:24;;;;;;;3.15;1.20;;;24.00;46.20;;;;;;5012008;28;20018;-62
2022/10/04 12:46:08;;;;;;;2.33;1.27;;;23.80;47.90;;;;;;5011516;28;20034;-62
2022/10/04 12:49:07;;;;;;;1.83;1.30;;;24.10;47.30;;;;;;5012870;28;20044;-62
2022/10/04 12:51:48;;;;;;;2.78;1.10;;;24.30;46.10;;;;;;5012543;28;20018;-60
2022/10/04 12:54:19;;;;;;;1.08;0.80;;;24.30;45.10;;;;;;5012719;28;20110;-62
2022/10/04 12:57:05;;;;;;;1.65;0.70;;;24.10;44.30;;;;;;5011870;28;20128;-60
2022/10/04 12:59:38;;;;;;;1.13;0.70;;;23.50;45.30;;;;;;5011902;28;20036;-60
2022/10/04 13:02:32;;;;;;;1.10;1.00;;;23.10;45.30;;;;;;4994199;28;20404;-61
2022/10/04 13:05:00;;;;;;;1.90;1.30;;;23.00;46.20;;;;;;5012104;28;20045;-61
2022/10/04 13:07:38;;;;;;;1.40;1.05;;;23.00;45.90;;;;;;5012742;28;20499;-62
2022/10/04 13:10:46;;;;;;;4.88;1.50;;;22.90;46.30;;;;;;5013345;28;20014;-62
2022/10/04 13:13:40;;;;;;;1.33;1.20;;;22.40;45.10;;;;;;4999085;28;20064;-61
2022/10/04 13:16:11;;;;;;;;;;;22.10;49.40;;;;;;5014170;28;20387;-63
2022/10/04 13:18:49;;;;;;;1.70;1.10;;;22.00;47.90;;;;;;5013741;28;20329;-61
2022/10/04 13:21:45;;;;;;;1.23;0.98;;;22.10;47.10;;;;;;5013345;28;20018;-62
2022/10/04 13:24:29;;;;;;;0.98;0.80;;;22.40;50.20;;;;;;5013531;28;20026;-63
2022/10/04 13:27:12;;;;;;;2.78;0.80;;;22.80;48.90;;;;;;5013473;28;20033;-61
2022/10/04 13:30:07;;;;;;;1.42;1.00;;;23.30;48.70;;;;;;5013459;28;20026;-63
2022/10/04 13:32:55;;;;;;;0.80;0.68;;;23.30;47.80;;;;;;4967792;28;20038;-61
2022/10/04 13:35:55;;;;;;;1.00;0.80;;;23.40;47.50;;;;;;5013484;28;20026;-63
2022/10/04 13:38:29;;;;;;;1.00;0.80;;;23.40;47.10;;;;;;5013293;28;20061;-60
2022/10/04 13:41:02;;;;;;;1.05;0.70;;;23.10;48.00;;;;;;5013353;28;20100;-62
2022/10/04 13:43:50;;;;;;;0.82;0.73;;;22.90;46.60;;;;;;5013302;28;20018;-62
2022/10/04 13:46:17;;;;;;;1.10;0.68;;;22.90;48.20;;;;;;5013298;28;20113;-62
2022/10/04 13:49:15;;;;;;;1.48;0.70;;;23.00;49.50;;;;;;5013175;28;20076;-60
2022/10/04 13:51:44;;;;;;;0.80;0.60;;;22.80;44.50;;;;;;5013312;28;20365;-62
2022/10/04 13:57:44;;;;;;;0.93;0.50;;;22.80;48.60;;;;;;5013190;28;20550;-63
2022/10/04 14:00:38;;;;;;;0.85;0.50;;;23.00;47.90;;;;;;5013231;28;20026;-61
2022/10/04 14:03:22;;;;;;;1.42;0.70;;;23.00;48.20;;;;;;5013362;28;20030;-60